Winston Salem, NC (27198)

6:58 PM EDT on July 28, 2015 (GMT -0400)
UNC School of the Arts | | Change Station
CLOSE
Current Station
Personal Weather Station
Location: Winston-Salem, NC
Elevation: 879 ft
Nearby Weather Stations

Elev 879 ft 36.08 °N, 80.23 °W | Updated 11 minutes ago

Rain
Rain
75.0 °F
Feels Like 74 °F
N
4.0
Wind Variable Wind from West
Gusts 9.0 mph

Today
High -- | Low -- °F
--% Chance of Precip.
Yesterday
High -- | Low -- °F
Precip. -- in
6:24 AM 8:29 PM
Waxing Gibbous, 92% visible
Pressure 30.01 in
Visibility 7.0 miles
Clouds Scattered Clouds 2000 ft
Mostly Cloudy 4600 ft
Overcast 8500 ft
Heat Index 74 °F
Dew Point 72 °F
Humidity 91%
Rainfall 0.24 in
Snow Depth Not available.
UV 0.0 out of 12
Pollen 2.80 out of 12
Air Quality Not available.
Flu Activity Not available.
SPECI KINT 282256Z 20003KT 7SM SCT020 BKN046 OVC085 24/22 A3001 RMK AO2 LTG DSNT NE AND SW AND W RAE56 P0000 T02390217

More Conditions Fewer Conditions

Pressure 30.01 in
Visibility 7.0 miles
Clouds Scattered Clouds 2000 ft
Mostly Cloudy 4600 ft
Overcast 8500 ft
Heat Index 74 °F
Dew Point 72 °F
Humidity 91%
Rainfall 0.24 in
Snow Depth Not available.
UV 0.0 out of 12
Pollen 2.80 out of 12
Air Quality Not available.
Flu Activity Not available.
SPECI KINT 282256Z 20003KT 7SM SCT020 BKN046 OVC085 24/22 A3001 RMK AO2 LTG DSNT NE AND SW AND W RAE56 P0000 T02390217

More Conditions Fewer Conditions

10-Day Weather Forecast

×

Almanac

Astronomy

Jul. 28, 2015 Rise Set
Actual Time
Civil Twilight
Nautical Twilight
Astronomical Twilight
Moon
Length of Visible Light
Length of Day
Tomorrow will be .
, % of the Moon is Illuminated

Today's Extremes

State Highs State Lows

Community

WunderPhotos

Upload Photos

1,841,963 photos uploaded!

WunderBlogs® & News

Nearby

Air Quality

  Air Quality AQ Index Pollutant
Not available.

Snow Depth

Station Depth Elevation

Earthquake Activity

City Distance Mag. Time & Date
Minimum magnitude displayed is 2.5.

Coastal Water Temperatures

Place Temperature

Stations

Nearby Weather Stations

Station Location Temp. Windchill Dew Point Humidity Wind Precip. Elev Updated Type